Time;durP1;ratioP1;P1;durP2;ratioP2;P2;SDS_P1;SDS_P2;PMS_P1;PMS_P2;Temp;Humidity;BMP_temperature;BMP_pressure;BME280_temperature;BME280_humidity;BME280_pressure;Samples;Min_cycle;Max_cycle;Signal;HPM_P1;HPM_P2
2023/10/05 00:00:36;;;;;;;28.00;3.55;;;;;;;16.19;100.00;100192.81;5091311;28;20038;-74
2023/10/05 00:03:05;;;;;;;19.83;2.88;;;;;;;16.11;100.00;100185.94;5089791;28;20031;-74
2023/10/05 00:05:33;;;;;;;15.38;2.60;;;;;;;16.02;100.00;100167.63;5089750;28;20038;-74
2023/10/05 00:07:59;;;;;;;12.27;2.00;;;;;;;15.87;100.00;100176.41;5089380;28;20028;-74
2023/10/05 00:10:24;;;;;;;10.52;1.83;;;;;;;16.03;100.00;100180.16;5072709;28;20032;-74
2023/10/05 00:12:50;;;;;;;8.50;1.90;;;;;;;15.85;100.00;100159.53;5072583;28;20032;-74
2023/10/05 00:15:17;;;;;;;9.40;1.90;;;;;;;15.88;100.00;100176.13;5072399;28;20035;-74
2023/10/05 00:17:42;;;;;;;7.57;1.40;;;;;;;15.81;100.00;100170.06;5072142;28;20102;-74
2023/10/05 00:20:14;;;;;;;7.07;1.30;;;;;;;15.73;100.00;100194.91;5071977;28;20059;-73
2023/10/05 00:22:40;;;;;;;7.90;1.48;;;;;;;15.75;100.00;100176.47;5089911;28;20012;-75
2023/10/05 00:25:09;;;;;;;5.68;0.90;;;;;;;15.73;100.00;100192.19;5089180;28;20028;-73
2023/10/05 00:27:36;;;;;;;8.70;1.52;;;;;;;15.77;100.00;100185.19;5089585;28;20032;-74
2023/10/05 00:30:02;;;;;;;6.10;0.80;;;;;;;15.72;100.00;100191.34;5091109;28;20402;-74
2023/10/05 00:32:39;;;;;;;6.30;0.93;;;;;;;15.69;100.00;100191.03;5091022;28;20024;-74
2023/10/05 00:37:42;;;;;;;5.47;1.00;;;;;;;15.72;100.00;100201.38;5089925;28;20028;-74
2023/10/05 00:40:11;;;;;;;6.65;1.45;;;;;;;15.78;100.00;100202.28;5077436;28;20084;-74
2023/10/05 00:42:37;;;;;;;7.22;1.13;;;;;;;15.72;100.00;100193.25;5100952;28;20024;-73
2023/10/05 00:45:05;;;;;;;3.78;0.80;;;;;;;15.66;100.00;100175.22;5097171;28;20456;-74
2023/10/05 00:47:32;;;;;;;4.10;0.80;;;;;;;15.63;100.00;100191.97;5094889;28;20035;-74
2023/10/05 00:49:58;;;;;;;5.45;1.00;;;;;;;15.81;100.00;100213.47;5093465;28;20521;-74
2023/10/05 00:52:24;;;;;;;4.03;0.80;;;;;;;15.85;100.00;100205.66;5094321;28;20052;-74
2023/10/05 00:54:53;;;;;;;6.65;0.95;;;;;;;15.83;100.00;100210.53;5094354;28;20031;-74
2023/10/05 00:57:22;;;;;;;4.80;1.23;;;;;;;15.96;100.00;100216.41;5092882;28;20081;-74
2023/10/05 00:59:55;;;;;;;5.55;0.68;;;;;;;15.89;100.00;100212.22;5094098;28;20074;-74
2023/10/05 01:02:21;;;;;;;6.60;1.20;;;;;;;16.04;100.00;100220.59;5093944;28;20048;-74
2023/10/05 01:07:28;;;;;;;6.45;0.73;;;;;;;15.88;100.00;100218.72;5093950;28;20024;-74
2023/10/05 01:12:38;;;;;;;2.58;0.77;;;;;;;15.69;100.00;100218.16;5093686;28;20028;-74
2023/10/05 01:15:09;;;;;;;3.88;0.60;;;;;;;15.71;100.00;100214.13;5093275;28;20395;-73
2023/10/05 01:17:36;;;;;;;5.63;0.70;;;;;;;15.78;100.00;100227.53;5093675;28;20134;-74
2023/10/05 01:20:13;;;;;;;8.20;0.90;;;;;;;15.80;100.00;100219.16;5075564;28;20028;-74
2023/10/05 01:22:39;;;;;;;6.88;1.10;;;;;;;15.69;100.00;100229.84;5094163;28;20487;-73
2023/10/05 01:25:05;;;;;;;5.53;0.90;;;;;;;15.58;100.00;100232.59;5092450;28;20100;-74
2023/10/05 01:27:32;;;;;;;4.82;0.70;;;;;;;15.55;100.00;100257.50;5091739;28;20130;-74
2023/10/05 01:29:57;;;;;;;5.13;0.90;;;;;;;15.55;100.00;100262.91;5091734;28;20103;-74
2023/10/05 01:32:23;;;;;;;5.20;1.17;;;;;;;15.37;100.00;100275.63;5092022;28;20467;-74
2023/10/05 01:34:50;;;;;;;6.43;1.20;;;;;;;15.38;100.00;100271.84;5075330;28;20035;-74
2023/10/05 01:37:22;;;;;;;6.47;1.50;;;;;;;15.30;100.00;100274.97;5094436;28;20020;-73
2023/10/05 01:39:48;;;;;;;6.63;1.17;;;;;;;15.38;100.00;100277.28;5094457;28;20478;-74
2023/10/05 01:42:14;;;;;;;5.93;1.38;;;;;;;15.23;100.00;100277.81;5093983;28;20077;-73
2023/10/05 01:44:47;;;;;;;5.93;1.38;;;;;;;15.29;100.00;100284.16;5075844;28;20038;-73
2023/10/05 01:47:16;;;;;;;2.88;1.23;;;;;;;15.17;100.00;100280.69;5091675;28;20057;-73
2023/10/05 01:49:46;;;;;;;6.13;0.80;;;;;;;15.24;100.00;100281.34;5074447;28;20032;-74
2023/10/05 01:52:12;;;;;;;4.07;0.95;;;;;;;15.18;100.00;100283.13;5092207;28;20079;-73
2023/10/05 01:54:37;;;;;;;3.95;0.80;;;;;;;15.11;100.00;100300.63;5090885;28;20028;-74
2023/10/05 01:57:08;;;;;;;9.48;1.40;;;;;;;15.06;100.00;100290.47;5074776;28;20032;-74
2023/10/05 01:59:34;;;;;;;3.08;0.68;;;;;;;15.12;100.00;100303.06;5075418;28;20059;-73
2023/10/05 02:02:00;;;;;;;5.03;0.82;;;;;;;15.16;100.00;100301.50;5091534;28;20051;-73
2023/10/05 02:04:26;;;;;;;2.78;0.90;;;;;;;15.14;100.00;100303.66;5092939;28;20020;-73
2023/10/05 02:06:53;;;;;;;3.92;0.70;;;;;;;14.99;100.00;100312.31;5091452;28;20031;-73
2023/10/05 02:09:19;;;;;;;4.07;1.10;;;;;;;15.02;100.00;100306.41;5092613;28;20036;-73
2023/10/05 02:11:47;;;;;;;3.63;0.80;;;;;;;15.09;100.00;100311.69;5091633;28;20028;-73
2023/10/05 02:14:14;;;;;;;3.85;0.90;;;;;;;14.95;100.00;100302.19;5092651;28;20035;-74
2023/10/05 02:16:40;;;;;;;6.45;1.00;;;;;;;15.09;100.00;100319.00;5091879;28;20115;-74
2023/10/05 02:19:08;;;;;;;4.28;1.27;;;;;;;14.82;100.00;100340.38;5074790;28;20055;-73
2023/10/05 02:21:37;;;;;;;2.10;0.68;;;;;;;14.23;100.00;100334.97;5091392;28;20031;-75
2023/10/05 02:24:16;;;;;;;4.00;0.80;;;;;;;14.19;100.00;100329.19;5075589;28;21108;-74
2023/10/05 02:27:29;;;;;;;2.92;0.85;;;;;;;14.05;100.00;100342.13;5076865;28;20051;-73
2023/10/05 02:29:31;;;;;;;2.67;0.73;;;;;;;14.16;100.00;100350.50;5098942;28;20062;-72
2023/10/05 02:32:08;;;;;;;3.80;1.00;;;;;;;14.06;100.00;100340.25;5095705;28;20034;-75
2023/10/05 02:34:42;;;;;;;17.48;2.92;;;;;;;14.03;100.00;100368.59;5093479;28;20110;-73
2023/10/05 02:37:12;;;;;;;8.05;1.35;;;;;;;14.07;100.00;100294.03;5092465;28;20040;-72
2023/10/05 02:39:38;;;;;;;5.97;1.15;;;;;;;14.32;100.00;100363.34;5091608;28;20032;-72
2023/10/05 02:42:12;;;;;;;1.23;0.35;;;;;;;14.39;100.00;100368.63;5098769;28;20043;-72
2023/10/05 02:44:38;;;;;;;3.30;0.52;;;;;;;14.27;100.00;100363.19;5092204;28;20036;-72
2023/10/05 02:47:12;;;;;;;4.78;0.40;;;;;;;14.40;100.00;100383.81;5075699;28;20036;-72
2023/10/05 02:49:43;;;;;;;7.18;0.63;;;;;;;14.40;100.00;100387.34;5093478;28;20035;-72
2023/10/05 02:52:13;;;;;;;2.75;0.50;;;;;;;14.29;100.00;100417.94;5092719;28;20040;-72
2023/10/05 02:54:43;;;;;;;2.95;0.70;;;;;;;13.58;100.00;100398.81;5075162;28;20028;-72
2023/10/05 02:57:16;;;;;;;7.97;0.90;;;;;;;13.89;100.00;100415.84;5093025;28;20046;-71
2023/10/05 02:59:45;;;;;;;5.38;0.93;;;;;;;13.84;100.00;100418.41;5091463;28;20032;-72
2023/10/05 03:02:14;;;;;;;3.97;0.60;;;;;;;13.98;100.00;100422.56;5092488;28;20490;-71
2023/10/05 03:04:56;;;;;;;3.25;0.45;;;;;;;13.92;100.00;100399.16;5096072;28;20031;-72
2023/10/05 03:07:25;;;;;;;5.70;0.80;;;;;;;14.13;100.00;100418.59;5094399;28;20490;-72
2023/10/05 03:09:52;;;;;;;4.30;0.77;;;;;;;13.98;100.00;100410.94;5091528;28;20082;-72
2023/10/05 03:12:20;;;;;;;5.30;0.70;;;;;;;14.12;100.00;100420.50;5091618;28;20024;-72
2023/10/05 03:14:46;;;;;;;8.27;0.90;;;;;;;13.96;100.00;100403.03;5091346;28;20494;-72
2023/10/05 03:17:19;;;;;;;4.28;0.80;;;;;;;14.18;100.00;100419.56;5092131;28;20088;-72
2023/10/05 03:19:45;;;;;;;3.63;0.65;;;;;;;14.07;100.00;100421.19;5090690;28;20084;-72
2023/10/05 03:22:13;;;;;;;5.82;1.00;;;;;;;14.15;100.00;100417.31;5106406;28;20039;-71
2023/10/05 03:24:47;;;;;;;6.15;0.93;;;;;;;14.19;100.00;100415.78;5096686;28;20052;-72
2023/10/05 03:27:12;;;;;;;6.22;0.90;;;;;;;14.19;100.00;100425.81;5075590;28;20139;-71
2023/10/05 03:29:38;;;;;;;4.50;0.95;;;;;;;13.86;100.00;100417.13;5091107;28;20520;-71
2023/10/05 03:34:34;;;;;;;6.35;0.95;;;;;;;14.08;100.00;100422.84;5092205;28;20032;-72
2023/10/05 03:37:08;;;;;;;4.47;1.20;;;;;;;14.23;100.00;100437.81;5092455;28;20406;-72
2023/10/05 03:39:38;;;;;;;1.83;0.75;;;;;;;13.94;100.00;100440.34;5076344;28;20090;-72
2023/10/05 03:42:05;;;;;;;3.53;1.00;;;;;;;13.56;100.00;100449.56;5100639;28;20028;-71
2023/10/05 03:44:31;;;;;;;4.30;0.98;;;;;;;13.50;100.00;100423.44;5099607;28;20036;-72
2023/10/05 03:46:57;;;;;;;3.08;0.70;;;;;;;13.49;100.00;100443.41;5085127;28;20095;-72
2023/10/05 03:49:22;;;;;;;3.97;0.90;;;;;;;13.49;100.00;100454.22;5091598;28;20032;-72
2023/10/05 03:51:51;;;;;;;2.13;0.90;;;;;;;13.18;100.00;100463.31;5092148;28;20135;-72
2023/10/05 03:54:18;;;;;;;4.80;0.85;;;;;;;13.13;100.00;100471.25;5074353;28;20069;-71
2023/10/05 03:56:59;;;;;;;3.58;0.82;;;;;;;13.29;100.00;100481.50;5092121;28;20145;-71
2023/10/05 03:59:24;;;;;;;3.50;0.90;;;;;;;13.69;100.00;100482.91;5092264;28;20024;-71
2023/10/05 04:01:51;;;;;;;3.17;0.90;;;;;;;13.54;100.00;100472.47;5073909;28;20031;-72
2023/10/05 04:04:21;;;;;;;3.15;0.93;;;;;;;13.40;100.00;100498.81;5073394;28;20031;-71
2023/10/05 04:06:50;;;;;;;2.65;0.90;;;;;;;13.04;100.00;100488.78;5090156;28;20020;-71
2023/10/05 04:09:16;;;;;;;4.75;0.90;;;;;;;13.17;100.00;100488.66;5090072;28;20032;-72
2023/10/05 04:11:45;;;;;;;3.67;0.85;;;;;;;13.13;100.00;100487.44;5089774;28;20031;-71
2023/10/05 04:14:12;;;;;;;5.10;1.13;;;;;;;13.14;100.00;100483.69;5092234;28;20024;-72
2023/10/05 04:16:38;;;;;;;2.95;0.65;;;;;;;13.38;100.00;100492.84;5093881;28;20689;-71
2023/10/05 04:19:04;;;;;;;3.63;1.10;;;;;;;13.25;100.00;100493.81;5095808;28;20103;-72
2023/10/05 04:21:33;;;;;;;3.10;0.85;;;;;;;13.21;100.00;100502.53;5096937;28;20595;-71
2023/10/05 04:23:59;;;;;;;2.22;0.82;;;;;;;13.31;100.00;100494.75;5096119;28;20098;-71
2023/10/05 04:29:24;;;;;;;3.60;1.02;;;;;;;13.38;100.00;100517.16;5076070;28;20123;-72
2023/10/05 04:31:51;;;;;;;3.70;0.88;;;;;;;13.34;100.00;100524.03;5079590;28;20126;-71
2023/10/05 04:34:24;;;;;;;2.63;1.00;;;;;;;13.38;100.00;100533.38;5095044;28;20459;-71
2023/10/05 04:36:50;;;;;;;3.47;1.02;;;;;;;13.30;100.00;100530.94;5079348;28;20039;-71
2023/10/05 04:39:21;;;;;;;2.45;1.00;;;;;;;13.24;100.00;100527.25;5106678;28;20032;-71
2023/10/05 04:41:49;;;;;;;3.75;1.13;;;;;;;13.36;100.00;100533.59;5107951;28;20016;-71
2023/10/05 04:44:15;;;;;;;3.28;0.95;;;;;;;13.40;100.00;100539.38;5097778;28;20236;-71
2023/10/05 04:46:48;;;;;;;2.67;0.98;;;;;;;13.31;100.00;100538.00;5097683;28;20056;-71
2023/10/05 04:49:14;;;;;;;3.25;0.90;;;;;;;13.23;100.00;100520.19;5097099;28;20036;-70
2023/10/05 04:51:41;;;;;;;5.05;1.30;;;;;;;13.34;100.00;100526.75;5093439;28;20051;-71
2023/10/05 04:54:11;;;;;;;3.10;1.00;;;;;;;13.50;100.00;100547.78;5076856;28;20486;-71
2023/10/05 04:56:43;;;;;;;2.45;1.00;;;;;;;13.44;100.00;100547.84;5093509;28;20036;-70
2023/10/05 05:07:10;;;;;;;2.88;1.00;;;;;;;13.38;100.00;100560.41;5094989;28;20036;-71
2023/10/05 05:09:41;;;;;;;3.75;1.00;;;;;;;13.17;100.00;100502.16;5093758;28;20478;-71
2023/10/05 05:12:09;;;;;;;3.88;1.00;;;;;;;13.65;100.00;100557.41;5101010;28;20032;-72
2023/10/05 05:14:36;;;;;;;4.88;1.02;;;;;;;13.60;100.00;100563.47;5106081;28;20032;-71
2023/10/05 05:17:06;;;;;;;3.17;1.00;;;;;;;13.66;100.00;100570.69;5091971;28;20024;-71
2023/10/05 05:19:34;;;;;;;3.45;0.90;;;;;;;13.64;100.00;100570.06;5092962;28;20066;-71
2023/10/05 05:22:00;;;;;;;2.15;0.88;;;;;;;13.77;100.00;100572.63;5092379;28;20055;-71
2023/10/05 05:24:29;;;;;;;2.88;0.80;;;;;;;13.84;100.00;100586.06;5091907;28;20055;-71
2023/10/05 05:27:00;;;;;;;4.13;1.15;;;;;;;13.57;100.00;100582.84;5074501;28;20067;-72
2023/10/05 05:29:32;;;;;;;3.00;0.82;;;;;;;13.61;100.00;100584.06;5092067;28;20574;-71
2023/10/05 05:32:05;;;;;;;2.10;0.85;;;;;;;13.42;100.00;100558.91;5094371;28;20551;-72
2023/10/05 05:34:31;;;;;;;3.22;1.10;;;;;;;13.74;100.00;100580.38;5093410;28;20028;-72
2023/10/05 05:36:56;;;;;;;3.05;0.95;;;;;;;13.81;100.00;100583.84;5092957;28;20035;-72
2023/10/05 05:39:22;;;;;;;3.33;0.98;;;;;;;13.92;100.00;100588.50;5101560;28;20032;-71
2023/10/05 05:41:56;;;;;;;4.93;1.20;;;;;;;13.80;100.00;100593.00;5083729;28;20020;-73
2023/10/05 05:44:22;;;;;;;4.10;1.02;;;;;;;13.84;100.00;100599.59;5094383;28;20028;-72
2023/10/05 05:46:49;;;;;;;4.00;0.88;;;;;;;13.78;100.00;100593.22;5075870;28;20038;-72
2023/10/05 05:49:16;;;;;;;2.13;0.90;;;;;;;13.67;100.00;100566.94;5093910;28;20556;-72
2023/10/05 05:51:43;;;;;;;4.00;0.90;;;;;;;13.92;100.00;100598.50;5074840;28;20072;-71
2023/10/05 05:54:10;;;;;;;2.85;1.05;;;;;;;13.85;100.00;100603.97;5092118;28;20035;-72
2023/10/05 05:56:36;;;;;;;3.90;1.17;;;;;;;13.81;100.00;100608.19;5093115;28;20055;-72
2023/10/05 05:59:02;;;;;;;3.20;1.13;;;;;;;13.77;100.00;100610.50;5092297;28;20093;-73
2023/10/05 06:01:28;;;;;;;3.00;0.90;;;;;;;13.76;100.00;100613.44;5090857;28;20023;-72
2023/10/05 06:03:54;;;;;;;3.72;1.27;;;;;;;13.80;100.00;100615.44;5091671;28;20046;-72
2023/10/05 06:06:20;;;;;;;3.25;1.13;;;;;;;13.92;100.00;100623.66;5074042;28;20059;-72
2023/10/05 06:08:46;;;;;;;3.72;1.02;;;;;;;13.83;100.00;100625.00;5092172;28;20561;-71
2023/10/05 06:11:13;;;;;;;4.28;1.02;;;;;;;13.80;100.00;100631.69;5092192;28;20034;-72
2023/10/05 06:13:38;;;;;;;3.95;0.77;;;;;;;13.73;100.00;100630.09;5092350;28;20032;-72
2023/10/05 06:16:10;;;;;;;2.97;1.05;;;;;;;13.67;100.00;100648.03;5093338;28;20048;-72
2023/10/05 06:18:40;;;;;;;3.58;1.02;;;;;;;13.62;100.00;100648.72;5091799;28;20114;-72
2023/10/05 06:21:06;;;;;;;2.25;0.70;;;;;;;13.70;100.00;100657.59;5091606;28;20020;-72
2023/10/05 06:23:35;;;;;;;2.33;1.05;;;;;;;13.77;100.00;100659.16;5092858;28;20016;-72
2023/10/05 06:26:01;;;;;;;4.00;0.98;;;;;;;13.91;100.00;100662.59;5075380;28;20128;-72
2023/10/05 06:28:27;;;;;;;2.78;0.98;;;;;;;13.96;100.00;100670.84;5089622;28;20648;-72
2023/10/05 06:30:56;;;;;;;3.70;0.95;;;;;;;13.91;99.72;100683.38;5090716;28;20506;-72
2023/10/05 06:33:22;;;;;;;4.30;1.20;;;;;;;13.92;99.46;100676.94;5073518;28;20071;-72
2023/10/05 06:35:48;;;;;;;2.38;0.70;;;;;;;14.12;98.80;100685.66;5088934;28;20116;-72
2023/10/05 06:38:14;;;;;;;5.47;1.67;;;;;;;14.21;98.70;100688.91;5072897;28;20173;-73
2023/10/05 06:40:39;;;;;;;4.18;1.05;;;;;;;14.29;98.06;100694.00;5091328;28;20024;-72
2023/10/05 06:43:05;;;;;;;3.60;1.00;;;;;;;14.33;97.37;100697.91;5090665;28;20031;-72
2023/10/05 06:45:31;;;;;;;4.10;1.10;;;;;;;14.37;97.01;100700.97;5074530;28;20501;-72
2023/10/05 06:47:57;;;;;;;2.53;0.90;;;;;;;14.34;96.57;100710.41;5090769;28;20024;-72
2023/10/05 06:50:23;;;;;;;4.88;1.45;;;;;;;14.14;96.49;100710.63;5090903;28;20032;-72
2023/10/05 06:52:48;;;;;;;2.55;1.10;;;;;;;14.34;95.52;100707.69;5073347;28;20055;-72
2023/10/05 06:55:17;;;;;;;3.20;1.15;;;;;;;14.20;95.49;100727.81;5073912;28;20035;-72
2023/10/05 06:57:43;;;;;;;2.95;0.95;;;;;;;14.19;94.59;100729.69;5090575;28;20031;-72
2023/10/05 07:00:11;;;;;;;2.53;1.00;;;;;;;14.00;95.09;100722.63;5091829;28;20077;-72
2023/10/05 07:02:40;;;;;;;2.97;1.00;;;;;;;14.10;95.82;100741.88;5092105;28;20491;-72
2023/10/05 07:05:07;;;;;;;2.92;0.98;;;;;;;14.40;94.48;100741.13;5073983;28;20372;-72
2023/10/05 07:07:35;;;;;;;2.13;1.00;;;;;;;14.59;93.09;100750.13;5092727;28;20028;-73
2023/10/05 07:10:03;;;;;;;3.63;1.00;;;;;;;14.47;94.51;100747.28;5075528;28;20066;-72
2023/10/05 07:12:46;;;;;;;3.53;1.10;;;;;;;14.41;94.97;100742.81;5090744;28;20020;-72
2023/10/05 07:15:12;;;;;;;1.63;0.95;;;;;;;14.31;94.04;100738.72;5090754;28;20028;-72
2023/10/05 07:17:37;;;;;;;2.85;1.40;;;;;;;14.63;92.96;100760.25;5090555;28;20047;-72
2023/10/05 07:20:04;;;;;;;2.97;1.35;;;;;;;14.76;91.33;100762.78;5091914;28;20035;-72
2023/10/05 07:22:29;;;;;;;3.42;1.40;;;;;;;14.80;90.37;100765.88;5090615;28;20124;-72
2023/10/05 07:24:56;;;;;;;3.03;1.00;;;;;;;14.48;89.95;100722.72;5091891;28;20518;-72
2023/10/05 07:27:21;;;;;;;2.13;0.80;;;;;;;14.65;88.67;100779.81;5073744;28;20020;-72
2023/10/05 07:29:47;;;;;;;2.75;0.80;;;;;;;14.61;88.37;100759.66;5091557;28;20088;-72
2023/10/05 07:32:13;;;;;;;4.07;1.20;;;;;;;14.90;87.60;100781.59;5090583;28;20036;-72
2023/10/05 07:34:45;;;;;;;3.42;1.20;;;;;;;14.96;87.37;100786.91;5092615;28;20266;-73
2023/10/05 07:37:10;;;;;;;1.90;0.95;;;;;;;15.03;87.62;100790.41;5091160;28;20028;-72
2023/10/05 07:39:41;;;;;;;2.47;0.93;;;;;;;15.00;87.28;100801.69;5090399;28;20028;-72
2023/10/05 07:42:08;;;;;;;3.28;1.00;;;;;;;15.03;87.04;100809.38;5089810;28;20022;-72
2023/10/05 07:44:37;;;;;;;2.50;0.90;;;;;;;14.95;86.70;100808.84;5091235;28;20038;-72
2023/10/05 07:47:06;;;;;;;2.05;0.93;;;;;;;15.02;86.26;100817.69;5091099;28;20024;-72
2023/10/05 07:49:35;;;;;;;1.98;1.15;;;;;;;15.17;85.50;100823.56;5075662;28;20122;-72
2023/10/05 07:52:09;;;;;;;2.95;1.10;;;;;;;15.18;85.02;100802.69;5091284;28;20056;-71
2023/10/05 07:54:38;;;;;;;1.55;0.95;;;;;;;15.40;84.10;100822.81;5092833;28;20093;-72
2023/10/05 07:57:09;;;;;;;2.75;1.10;;;;;;;15.54;83.84;100833.47;5074198;28;20074;-72
2023/10/05 07:59:35;;;;;;;2.55;1.05;;;;;;;15.56;83.40;100842.19;5074924;28;20032;-71
2023/10/05 08:02:01;;;;;;;1.75;1.02;;;;;;;15.54;82.44;100850.56;5091745;28;20575;-72
2023/10/05 08:04:29;;;;;;;2.88;1.23;;;;;;;15.55;81.19;100848.69;5073779;28;20032;-72
2023/10/05 08:06:55;;;;;;;2.35;1.13;;;;;;;15.59;80.27;100847.97;5091427;28;20034;-72
2023/10/05 08:09:20;;;;;;;1.73;1.00;;;;;;;15.71;78.99;100857.03;5090240;28;20118;-72
2023/10/05 08:11:53;;;;;;;1.88;1.08;;;;;;;15.80;78.11;100860.25;5089747;28;20124;-72
2023/10/05 08:14:20;;;;;;;2.42;1.10;;;;;;;15.70;77.37;100854.56;5073811;28;20039;-72
2023/10/05 08:16:46;;;;;;;2.08;1.23;;;;;;;15.57;76.54;100871.81;5090122;28;20036;-72
2023/10/05 08:19:11;;;;;;;2.50;1.20;;;;;;;15.52;76.12;100877.09;5089988;28;20102;-72
2023/10/05 08:21:36;;;;;;;2.90;1.20;;;;;;;15.57;75.78;100884.56;5089616;28;20451;-72
2023/10/05 08:24:02;;;;;;;2.35;0.90;;;;;;;15.54;75.73;100871.44;5072597;28;20046;-72
2023/10/05 08:26:29;;;;;;;2.05;1.10;;;;;;;15.57;74.88;100884.56;5089557;28;20449;-72
2023/10/05 08:28:57;;;;;;;3.10;1.17;;;;;;;15.44;73.40;100867.41;5089485;28;20034;-73
2023/10/05 08:31:23;;;;;;;2.30;1.00;;;;;;;15.74;73.20;100904.56;5072543;28;20145;-73
2023/10/05 08:33:54;;;;;;;1.80;1.05;;;;;;;15.67;72.47;100901.13;5092472;28;20059;-70
2023/10/05 08:36:23;;;;;;;2.10;0.98;;;;;;;15.77;72.33;100917.69;5093983;28;20024;-72
2023/10/05 08:38:48;;;;;;;1.73;0.95;;;;;;;15.78;72.54;100913.91;5076435;28;20054;-71
2023/10/05 08:41:34;;;;;;;2.40;1.05;;;;;;;15.78;71.57;100911.19;5093768;28;20483;-73
2023/10/05 08:44:00;;;;;;;3.47;1.45;;;;;;;15.91;70.89;100932.69;5082142;28;20020;-73
2023/10/05 08:46:27;;;;;;;2.45;1.20;;;;;;;16.05;70.00;100937.94;5092641;28;20028;-73
2023/10/05 08:48:55;;;;;;;3.13;1.60;;;;;;;16.07;69.49;100949.41;5092668;28;20024;-73
2023/10/05 08:51:24;;;;;;;2.97;1.48;;;;;;;16.10;68.00;100952.47;5073876;28;20047;-72
2023/10/05 08:54:02;;;;;;;2.65;1.30;;;;;;;16.12;66.76;100960.38;5091824;28;20564;-73
2023/10/05 08:56:31;;;;;;;3.33;1.40;;;;;;;16.25;66.65;100965.59;5089975;28;20051;-73
2023/10/05 08:58:59;;;;;;;3.22;1.38;;;;;;;16.22;65.91;100971.50;5092369;28;20085;-73
2023/10/05 09:01:31;;;;;;;2.10;1.17;;;;;;;16.28;65.18;100965.13;5077505;28;20032;-72
2023/10/05 09:06:55;;;;;;;3.88;1.50;;;;;;;16.27;62.56;100976.25;5093608;28;20362;-73
2023/10/05 09:09:30;;;;;;;2.67;1.23;;;;;;;16.28;62.30;100983.31;5094558;28;20204;-73
2023/10/05 09:11:56;;;;;;;;;;;;;;;16.43;63.40;100994.56;5094608;28;20074;-72
2023/10/05 09:14:38;;;;;;;5.50;1.48;;;;;;;16.32;62.41;100996.19;5092655;28;19923;-73
2023/10/05 09:17:07;;;;;;;3.15;1.30;;;;;;;16.45;62.82;101011.44;5094033;28;20160;-73
2023/10/05 09:19:37;;;;;;;4.00;1.52;;;;;;;16.50;62.31;101011.59;5096487;28;20032;-73
2023/10/05 09:22:14;;;;;;;2.88;1.48;;;;;;;16.63;62.25;101011.38;5094298;28;20368;-73
2023/10/05 09:24:52;;;;;;;4.15;1.42;;;;;;;16.70;62.95;101021.31;5093506;28;20024;-73
2023/10/05 09:27:19;;;;;;;2.97;1.30;;;;;;;16.75;63.59;101025.00;5093421;28;20027;-73
2023/10/05 09:29:45;;;;;;;2.92;1.30;;;;;;;16.81;64.36;101018.63;5083544;28;20044;-72
2023/10/05 09:32:25;;;;;;;3.30;1.20;;;;;;;16.90;64.96;101032.69;5100777;28;20487;-73
2023/10/05 09:34:51;;;;;;;3.05;1.20;;;;;;;16.97;65.98;101038.84;5077103;28;20028;-73
2023/10/05 09:37:18;;;;;;;2.17;1.30;;;;;;;16.86;67.26;101047.84;5094340;28;20582;-73
2023/10/05 09:39:54;;;;;;;2.65;1.00;;;;;;;16.60;69.62;101039.00;5093468;28;20081;-73
2023/10/05 09:42:25;;;;;;;4.63;1.25;;;;;;;16.60;72.54;101051.78;5078349;28;20410;-73
2023/10/05 09:45:08;;;;;;;5.13;1.30;;;;;;;16.62;74.29;101061.34;5094105;28;20031;-73
2023/10/05 09:47:35;;;;;;;3.78;1.23;;;;;;;16.75;74.65;101052.16;5092909;28;20051;-73
2023/10/05 09:50:12;;;;;;;2.55;1.23;;;;;;;16.78;75.51;101045.44;5094553;28;20047;-73
2023/10/05 09:52:43;;;;;;;2.35;1.02;;;;;;;16.95;75.85;101073.59;5060624;28;20506;-73
2023/10/05 09:55:12;;;;;;;2.60;0.93;;;;;;;16.68;75.62;101062.28;5092471;28;20052;-73
2023/10/05 09:57:42;;;;;;;4.80;1.35;;;;;;;16.72;73.42;101068.94;5092366;28;20118;-74
2023/10/05 10:00:13;;;;;;;5.60;1.02;;;;;;;16.63;72.40;101084.75;5092257;28;20566;-73
2023/10/05 10:02:41;;;;;;;1.95;1.10;;;;;;;16.64;72.31;101099.16;5076117;28;20038;-72
2023/10/05 10:05:30;;;;;;;4.60;1.08;;;;;;;16.59;71.48;101096.31;5101876;28;20024;-74
2023/10/05 10:08:12;;;;;;;2.58;1.10;;;;;;;16.55;71.48;101067.94;5094850;28;20106;-73
2023/10/05 10:10:41;;;;;;;2.58;1.20;;;;;;;16.65;71.61;101106.22;5093637;28;20394;-73
2023/10/05 10:13:13;;;;;;;4.20;1.10;;;;;;;16.86;71.56;101107.63;5096299;28;20344;-73
2023/10/05 10:15:39;;;;;;;3.47;1.10;;;;;;;16.94;72.10;101115.44;5092258;28;20076;-73
2023/10/05 10:18:14;;;;;;;4.93;1.05;;;;;;;16.57;72.55;101072.06;5093250;28;20032;-73
2023/10/05 10:20:46;;;;;;;4.13;1.20;;;;;;;16.76;72.59;101116.34;5095749;28;20029;-73
2023/10/05 10:23:19;;;;;;;3.50;0.90;;;;;;;16.90;72.62;101134.09;5093974;28;20050;-74
2023/10/05 10:25:45;;;;;;;5.82;1.20;;;;;;;16.83;73.39;101116.25;5099855;28;20028;-73
2023/10/05 10:28:14;;;;;;;5.10;0.93;;;;;;;16.96;73.54;101131.53;5095265;28;20490;-73
2023/10/05 10:30:43;;;;;;;3.13;0.98;;;;;;;16.74;74.39;101117.59;5092168;28;20037;-73
2023/10/05 10:33:30;;;;;;;1.65;0.65;;;;;;;16.68;76.37;101143.81;5092498;28;20032;-74
2023/10/05 10:35:57;;;;;;;2.65;0.73;;;;;;;16.61;76.16;101137.63;5098626;28;20020;-73
2023/10/05 10:38:23;;;;;;;2.63;0.68;;;;;;;16.67;75.34;101153.03;5092657;28;20103;-73
2023/10/05 10:41:07;;;;;;;1.77;0.60;;;;;;;16.67;75.67;101156.56;5075430;28;20114;-73
2023/10/05 10:43:33;;;;;;;4.13;1.08;;;;;;;16.66;73.25;101157.63;5091830;28;20046;-73
2023/10/05 10:46:00;;;;;;;3.35;0.70;;;;;;;16.66;73.77;101167.69;5091445;28;20020;-73
2023/10/05 10:48:29;;;;;;;3.22;0.70;;;;;;;16.62;74.30;101144.72;5092067;28;20024;-73
2023/10/05 10:50:59;;;;;;;2.97;0.70;;;;;;;16.65;73.97;101160.56;5078072;28;20097;-73
2023/10/05 10:53:30;;;;;;;2.17;0.70;;;;;;;16.75;73.97;101169.03;5092664;28;20051;-73
2023/10/05 10:56:03;;;;;;;2.03;0.68;;;;;;;16.68;75.18;101168.25;5090782;28;20028;-73
2023/10/05 10:58:30;;;;;;;6.90;0.88;;;;;;;16.70;78.11;101179.75;5089944;28;20055;-73
2023/10/05 11:01:04;;;;;;;1.77;0.73;;;;;;;16.67;79.06;101177.47;5092951;28;20047;-73
2023/10/05 11:03:36;;;;;;;4.10;0.68;;;;;;;16.51;79.28;101178.94;5091232;28;20022;-73
2023/10/05 11:06:09;;;;;;;3.58;0.70;;;;;;;16.79;80.21;101189.25;5091415;28;20399;-73
2023/10/05 11:08:40;;;;;;;4.53;0.70;;;;;;;16.67;81.26;101175.59;5092418;28;20311;-73
2023/10/05 11:11:09;;;;;;;3.47;0.70;;;;;;;16.70;82.27;101192.50;5097337;28;20015;-73
2023/10/05 11:14:00;;;;;;;3.90;0.85;;;;;;;16.53;82.01;101182.28;5091172;28;20048;-73
2023/10/05 11:16:43;;;;;;;3.63;0.70;;;;;;;16.77;82.42;101190.53;5092632;28;20105;-73
2023/10/05 11:19:13;;;;;;;3.80;0.73;;;;;;;16.51;81.41;101203.38;5091497;28;20495;-73
2023/10/05 11:21:45;;;;;;;3.80;0.85;;;;;;;16.48;80.97;101197.59;5091628;28;20486;-73
2023/10/05 11:24:15;;;;;;;4.68;0.73;;;;;;;16.52;80.45;101201.50;5090969;28;20024;-73
2023/10/05 11:27:27;;;;;;;2.92;0.52;;;;;;;16.40;80.12;101196.84;5092390;28;20047;-73
2023/10/05 11:29:43;;;;;;;4.70;0.80;;;;;;;16.37;80.59;101220.91;5085503;28;20036;-73
2023/10/05 11:32:15;;;;;;;3.45;0.80;;;;;;;16.51;80.75;101222.41;5095113;28;20028;-73
2023/10/05 11:34:42;;;;;;;5.00;0.80;;;;;;;16.38;83.04;101217.97;5093265;28;20031;-73
2023/10/05 11:37:18;;;;;;;3.20;0.85;;;;;;;16.40;83.27;101231.34;5092504;28;20028;-73
2023/10/05 11:39:58;;;;;;;2.80;0.60;;;;;;;16.25;83.11;101231.69;5095632;28;20390;-73
2023/10/05 11:42:24;;;;;;;2.80;0.77;;;;;;;16.30;81.76;101231.84;5092368;28;20134;-73
2023/10/05 11:45:16;;;;;;;2.40;0.60;;;;;;;16.34;81.26;101235.78;5091942;28;20103;-73
2023/10/05 11:47:47;;;;;;;5.95;0.98;;;;;;;16.30;80.47;101214.75;5091276;28;20529;-73
2023/10/05 11:50:24;;;;;;;3.72;0.50;;;;;;;16.30;79.93;101244.63;5090228;28;20077;-73
2023/10/05 11:52:52;;;;;;;3.47;0.88;;;;;;;16.30;79.66;101236.47;5090530;28;20078;-73
2023/10/05 11:55:18;;;;;;;3.92;0.60;;;;;;;16.15;79.23;101242.25;5091323;28;20154;-73